createdAt,value
2019-04-03T00:04:18.490Z,99363.42
2019-04-03T00:09:23.167Z,99352.48
2019-04-03T00:14:27.739Z,99359.84
2019-04-03T00:19:33.201Z,99354.18
2019-04-03T00:24:38.668Z,99343.56
2019-04-03T00:29:43.294Z,99338.34
2019-04-03T00:34:47.887Z,99344.87
2019-04-03T00:39:54.087Z,99344.55
2019-04-03T00:44:58.697Z,99345.04
2019-04-03T00:50:03.507Z,99343.00
2019-04-03T00:55:08.083Z,99341.62
2019-04-03T01:00:16.518Z,99342.94
2019-04-03T01:05:21.028Z,99336.14
2019-04-03T01:10:25.458Z,99339.12
2019-04-03T01:15:31.605Z,99333.47
2019-04-03T01:20:36.645Z,99331.80
2019-04-03T01:25:41.206Z,99334.59
2019-04-03T01:30:46.033Z,99325.14
2019-04-03T01:35:50.515Z,99318.69
2019-04-03T01:40:55.093Z,99303.85
2019-04-03T01:45:59.719Z,99311.77
2019-04-03T01:51:04.334Z,99302.30
2019-04-03T01:56:08.961Z,99307.55
2019-04-03T02:01:13.479Z,99297.34
2019-04-03T02:06:17.966Z,99294.23
2019-04-03T02:11:22.916Z,99294.41
2019-04-03T02:16:27.620Z,99286.89
2019-04-03T02:21:32.129Z,99276.67
2019-04-03T02:26:36.689Z,99276.67
2019-04-03T02:31:41.160Z,99268.70
2019-04-03T02:36:45.715Z,99272.63
2019-04-03T02:41:51.112Z,99254.97
2019-04-03T02:46:59.713Z,99249.27
2019-04-03T02:52:01.922Z,99258.20
2019-04-03T02:57:07.005Z,99260.48
2019-04-03T03:02:12.848Z,99246.11
2019-04-03T03:07:17.819Z,99250.50
2019-04-03T03:12:25.190Z,99245.81
2019-04-03T03:17:30.627Z,99245.36
2019-04-03T03:22:36.865Z,99240.52
2019-04-03T03:27:42.637Z,99240.19
2019-04-03T03:32:48.350Z,99237.70
2019-04-03T03:37:53.183Z,99243.95
2019-04-03T03:42:59.284Z,99233.97
2019-04-03T03:48:08.515Z,99231.45
2019-04-03T03:53:12.694Z,99226.00
2019-04-03T03:58:19.124Z,99228.38
2019-04-03T04:03:24.897Z,99223.98
2019-04-03T04:08:29.974Z,99216.70
2019-04-03T04:13:35.892Z,99219.77
2019-04-03T04:18:42.051Z,99210.03
2019-04-03T04:23:46.635Z,99210.78
2019-04-03T04:28:51.433Z,99203.45
2019-04-03T04:33:56.925Z,99205.92
2019-04-03T04:39:01.810Z,99205.86
2019-04-03T04:44:08.000Z,99209.63
2019-04-03T04:49:14.603Z,99205.27
2019-04-03T04:54:19.047Z,99211.09
2019-04-03T04:59:23.492Z,99202.84
2019-04-03T05:04:27.969Z,99205.71
2019-04-03T05:09:34.355Z,99195.27
2019-04-03T05:14:39.603Z,99193.65
2019-04-03T05:19:44.167Z,99193.64
2019-04-03T05:24:48.602Z,99194.59
2019-04-03T05:29:53.041Z,99194.31
2019-04-03T05:34:57.503Z,99192.74
2019-04-03T05:40:02.365Z,99189.86
2019-04-03T05:45:07.652Z,99189.95
2019-04-03T05:50:12.509Z,99187.39
2019-04-03T05:55:16.976Z,99177.30
2019-04-03T06:00:21.645Z,99171.86
2019-04-03T06:05:26.146Z,99177.70
2019-04-03T06:10:32.349Z,99176.80
2019-04-03T06:15:36.998Z,99178.87
2019-04-03T06:20:43.583Z,99172.78
2019-04-03T06:25:48.000Z,99170.35
2019-04-03T06:30:54.183Z,99173.39
2019-04-03T06:35:58.642Z,99164.91
2019-04-03T06:41:03.347Z,99153.55
2019-04-03T06:46:07.958Z,99150.31
2019-04-03T06:51:12.601Z,99148.91
2019-04-03T06:56:18.587Z,99141.98
2019-04-03T07:01:23.365Z,99141.42
2019-04-03T07:06:27.928Z,99138.97
2019-04-03T07:11:32.360Z,99139.91
2019-04-03T07:16:38.578Z,99128.26
2019-04-03T07:21:43.268Z,99136.48
2019-04-03T07:26:48.181Z,99126.88
2019-04-03T07:31:55.162Z,99125.45
2019-04-03T07:37:01.060Z,99117.91
2019-04-03T07:42:05.999Z,99116.91
2019-04-03T07:47:11.501Z,99112.27
2019-04-03T07:52:16.826Z,99112.59
2019-04-03T07:57:22.302Z,99108.67
2019-04-03T08:02:26.983Z,99105.52
2019-04-03T08:07:31.619Z,99108.67
2019-04-03T08:12:37.295Z,99112.76
2019-04-03T08:17:41.890Z,99109.94
2019-04-03T08:22:46.440Z,99106.78
2019-04-03T08:27:50.982Z,99114.23
2019-04-03T08:32:56.390Z,99105.52
2019-04-03T08:38:00.950Z,99107.76
2019-04-03T08:43:05.583Z,99096.91
2019-04-03T08:48:10.216Z,99087.17
2019-04-03T08:53:15.290Z,99084.64
2019-04-03T08:58:21.565Z,99081.09
2019-04-03T09:03:26.606Z,99079.30
2019-04-03T09:08:31.165Z,99069.59
2019-04-03T09:13:36.913Z,99060.87
2019-04-03T09:18:42.529Z,99053.71
2019-04-03T09:23:47.988Z,99048.98
2019-04-03T09:28:52.425Z,99042.30
2019-04-03T09:33:57.963Z,99036.55
2019-04-03T09:39:02.951Z,99025.59
2019-04-03T09:44:07.917Z,99022.04
2019-04-03T09:49:12.463Z,99021.42
2019-04-03T09:54:16.976Z,99018.66
2019-04-03T09:59:21.516Z,99008.94
2019-04-03T10:04:26.750Z,99006.83
2019-04-03T10:09:31.512Z,98989.56
2019-04-03T10:14:36.013Z,98997.47
2019-04-03T10:19:40.511Z,98980.73
2019-04-03T10:24:45.434Z,98978.32
2019-04-03T10:29:50.720Z,98973.98
2019-04-03T10:34:57.433Z,98963.77
2019-04-03T10:40:02.103Z,98946.31
2019-04-03T10:45:08.829Z,98939.89
2019-04-03T10:50:14.080Z,98931.19
2019-04-03T10:55:18.630Z,98917.38
2019-04-03T11:00:24.636Z,98916.15
2019-04-03T11:05:29.627Z,98915.67
2019-04-03T11:10:34.273Z,98912.11
2019-04-03T11:15:38.806Z,98892.38
2019-04-03T11:20:43.602Z,98891.34
2019-04-03T11:25:49.125Z,98888.30
2019-04-03T11:30:56.302Z,98880.37
2019-04-03T11:36:02.177Z,98877.11
2019-04-03T11:41:14.424Z,98856.67
2019-04-03T11:46:13.851Z,98854.56
2019-04-03T11:51:21.048Z,98854.82
2019-04-03T11:56:25.695Z,98860.02
2019-04-03T12:01:30.268Z,98852.49
2019-04-03T12:06:34.781Z,98847.75
2019-04-03T12:11:39.931Z,98858.28
2019-04-03T12:16:44.884Z,98852.98
2019-04-03T12:21:50.830Z,98840.30
2019-04-03T12:26:56.383Z,98818.45
2019-04-03T12:32:03.440Z,98837.48
2019-04-03T12:37:08.281Z,98831.92
2019-04-03T12:42:12.853Z,98819.31
2019-04-03T12:47:17.342Z,98815.09
2019-04-03T12:52:22.054Z,98810.09
2019-04-03T12:57:26.624Z,98809.69
2019-04-03T13:02:31.517Z,98808.41
2019-04-03T13:07:37.408Z,98798.35
2019-04-03T13:12:42.452Z,98802.63
2019-04-03T13:17:46.881Z,98781.27
2019-04-03T13:22:51.835Z,98794.45
2019-04-03T13:27:56.353Z,98777.74
2019-04-03T13:33:05.431Z,98746.81
2019-04-03T13:38:07.263Z,98763.63
2019-04-03T13:43:11.994Z,98767.50
2019-04-03T13:48:16.598Z,98767.08
2019-04-03T13:53:24.683Z,98770.19
2019-04-03T13:58:28.491Z,98766.86
2019-04-03T14:03:33.193Z,98766.91
2019-04-03T14:08:37.853Z,98761.55
2019-04-03T14:13:43.655Z,98756.45
2019-04-03T14:18:50.358Z,98751.44
2019-04-03T14:23:54.771Z,98738.39
2019-04-03T14:28:59.280Z,98736.63
2019-04-03T14:34:04.092Z,98737.91
2019-04-03T14:39:09.767Z,98722.51
2019-04-03T14:44:14.245Z,98736.05
2019-04-03T14:49:18.939Z,98729.22
2019-04-03T14:54:24.544Z,98737.53
2019-04-03T14:59:30.653Z,98720.59
2019-04-03T15:04:37.128Z,98729.45
2019-04-03T15:09:41.994Z,98730.90
2019-04-03T15:14:46.507Z,98717.67
2019-04-03T15:19:51.113Z,98727.38
2019-04-03T15:24:55.974Z,98711.27
2019-04-03T15:30:00.380Z,98719.80
2019-04-03T15:35:06.058Z,98703.43
2019-04-03T15:40:11.494Z,98707.44
2019-04-03T15:45:16.199Z,98702.02
2019-04-03T15:50:20.817Z,98701.02
2019-04-03T16:00:42.592Z,98695.45
2019-04-03T16:05:46.209Z,98702.91
2019-04-03T16:10:50.758Z,98698.95
2019-04-03T16:15:56.704Z,98704.29
2019-04-03T16:21:01.717Z,98704.80
2019-04-03T16:26:06.710Z,98691.80
2019-04-03T16:31:11.548Z,98699.13
2019-04-03T16:36:17.115Z,98695.36
2019-04-03T16:41:22.180Z,98709.06
2019-04-03T16:46:26.747Z,98704.86
2019-04-03T16:56:38.190Z,98704.08
2019-04-03T17:01:44.434Z,98707.42
2019-04-03T17:06:49.092Z,98707.67
2019-04-03T17:11:54.087Z,98700.75
2019-04-03T17:16:58.558Z,98698.72
2019-04-03T17:22:05.817Z,98700.53
2019-04-03T17:27:09.455Z,98697.55
2019-04-03T17:32:14.069Z,98708.83
2019-04-03T17:37:20.577Z,98710.89
2019-04-03T17:42:26.158Z,98717.53
2019-04-03T17:47:30.779Z,98721.06
2019-04-03T17:52:36.371Z,98723.26
2019-04-03T17:57:44.550Z,98738.41
2019-04-03T18:02:47.820Z,98741.75
2019-04-03T18:07:52.895Z,98744.55
2019-04-03T18:12:57.361Z,98748.90
2019-04-03T18:18:02.938Z,98746.77
2019-04-03T18:23:10.836Z,98752.56
2019-04-03T18:28:15.476Z,98753.01
2019-04-03T18:33:19.945Z,98765.66
2019-04-03T18:38:25.434Z,98760.36
2019-04-03T18:43:30.082Z,98764.84
2019-04-03T18:48:34.545Z,98771.15
2019-04-03T18:53:40.650Z,98775.31
2019-04-03T18:58:45.213Z,98766.49
2019-04-03T19:03:49.763Z,98777.54
2019-04-03T19:08:54.365Z,98775.03
2019-04-03T19:13:59.032Z,98773.45
2019-04-03T19:19:08.079Z,98768.02
2019-04-03T19:24:09.752Z,98788.94
2019-04-03T19:29:14.304Z,98786.52
2019-04-03T19:34:20.175Z,98783.86
2019-04-03T19:39:25.052Z,98787.61
2019-04-03T19:44:29.611Z,98792.08
2019-04-03T19:49:34.169Z,98794.64
2019-04-03T19:54:38.814Z,98789.06
2019-04-03T19:59:43.307Z,98781.59
2019-04-03T20:04:48.770Z,98782.80
2019-04-03T20:09:55.926Z,98789.91
2019-04-03T20:15:02.265Z,98791.02
2019-04-03T20:20:07.804Z,98799.36
2019-04-03T20:25:14.414Z,98793.53
2019-04-03T20:30:18.762Z,98795.56
2019-04-03T20:35:23.277Z,98797.47
2019-04-03T20:40:27.750Z,98790.58
2019-04-03T20:45:32.301Z,98783.41
2019-04-03T20:50:38.142Z,98788.34
2019-04-03T20:55:42.896Z,98795.08
2019-04-03T21:00:51.474Z,98795.75
2019-04-03T21:05:53.671Z,98791.48
2019-04-03T21:10:58.259Z,98793.61
2019-04-03T21:16:02.800Z,98792.20
2019-04-03T21:21:07.395Z,98786.59
2019-04-03T21:26:12.201Z,98774.02
2019-04-03T21:31:16.689Z,98786.16
2019-04-03T21:36:21.236Z,98788.14
2019-04-03T21:41:25.703Z,98788.31
2019-04-03T21:46:30.179Z,98787.28
2019-04-03T21:51:34.761Z,98784.53
2019-04-03T21:56:39.257Z,98776.22
2019-04-03T22:01:45.424Z,98776.38
2019-04-03T22:06:50.199Z,98771.07
2019-04-03T22:11:54.639Z,98774.34
2019-04-03T22:16:59.149Z,98772.79
2019-04-03T22:22:03.735Z,98777.80
2019-04-03T22:27:08.160Z,98778.70
2019-04-03T22:32:12.589Z,98787.23
2019-04-03T22:37:17.392Z,98782.39
2019-04-03T22:42:21.908Z,98781.42
2019-04-03T22:47:26.412Z,98785.27
2019-04-03T22:52:30.841Z,98777.75
2019-04-03T22:57:35.331Z,98776.05
2019-04-03T23:02:39.967Z,98775.15
2019-04-03T23:07:44.407Z,98776.95
2019-04-03T23:12:48.911Z,98775.68
2019-04-03T23:17:53.353Z,98770.77
2019-04-03T23:22:57.862Z,98773.52
2019-04-03T23:28:02.985Z,98758.06
2019-04-03T23:33:08.155Z,98757.69
2019-04-03T23:38:12.770Z,98757.77
2019-04-03T23:43:17.344Z,98757.67
2019-04-03T23:48:21.926Z,98752.02
2019-04-03T23:53:26.417Z,98735.03
2019-04-03T23:58:30.969Z,98745.88
